Disclaimer

Please do not use the information listed here in-flight or in-navigation, as they are not provided to us by the airports but are provided by volunteers, so they might be outdated.

Search


Regions


Airport information page

No radio frequency information is available.

Airport informations:
Latitude: 04° 15' 20.41" S
Longitude: 069° 56' 08.98" W
Elevation: 279 feet - 85 meters
Operating hours: Remarks
Operating agency: Civil government, landing fees and diplomatic clearance may be required
Timezone: UTC-5(-4DT)
Fuel: Jet A1, without icing nhibitor.

Runway information:
12/30 - 7054 x 105 feet< - >2150 x 32 meters

Recent METARs:
SBTT 202000Z 26001KT 9999 FEW020 29/24 Q1008
SBTT 202000Z 26001KT 9999 FEW020 29/24 Q1008
SBTT 202100Z 25001KT 9999 FEW020 29/23 Q1007

Airport on the map: